Missoula International Airport
KMSO : now visible

Airfield :











YOU CAN JOIN US ON...

 
LOGIN :

Register | Disclaimer

   EN    FR    IT 

 









Legend :    VFR   Marginal VFR   IFR   Intensive IFR   Very Intensive IFR
Visi :
Ceiling :
>= 8 km
>= 3000ft
5 to 8 km
1000 to 3000 ft
1500m to 5 km
500 to 1000 ft
800 to 1500m
200 to 500 ft
< 800m
< 200 ft
Symbols :   Thunderstorms  Fog  Heavy snow  Heavy precipitations  Wind > 20 kt






- Airport Elevation : 3206 ft
- IATA code : MSO


KMSO - Missoula International

CURRENT METAR :
  • 190053Z 30011KT 10SM FEW046 FEW060 OVC100 15/04 A2983 RMK AO2 PK WND 02029/2354 RAE23 SLP098 P0000 T01500039

EXPIRED METARs :
  • 182353Z 02014G29KT 10SM -RA BKN047 BKN055 OVC070 16/06 A2980 RMK AO2 PK WND 33039/2322 RAB25 SLP090 P0000 60000 T01560061 10256 20150 53054
  • 182253Z 32022G38KT 8SM CLR 19/05 A2971 RMK AO2 PK WND 32039/2243 SLP050 T01890050

TAF KMSO
Valid from the 19 at 00:00 until the 20 at 00:00 UTC


182329Z 1900/1924 32025G39KT P6SM -RA FEW035 OVC060
FM190200 32015G25KT P6SM -SHRA OVC050
FM190300 30011KT P6SM -SHRA BKN050
FM192000 28010G20KT P6SM -SHRA OVC050
KZLC FIR / North America



MET'MAP, your aeronautical weather chart ! - Copyright ORBIFLY December 2007 - Disclaimer

ORBIFLY MET'MAP TEAM :

Programming & Development : Alexandra Zaïnal
Concept & original design : Baudouin d'Aumeries
Assistance for programming : Marc-Olivier Méhu
Technical & hardware support : Manuel Goepfert

Contact : metmap@orbifly.com




SOURCES & CREDITS :

   NOAA       Earth
Advisory